Flight Track Log - Related Links

Times and Time Zones

All times are in EDT time to prevent confusion due to time zone crossing. See the FLG3795 flight status page for this flight to view local times or setup timezone preferences in your user account.

Time Position Orientation Groundspeed Altitude Reporting Facility
EDT Latitude Longitude Course Direction KTS MPH feet Rate Location/Type
Sat 06:31:54 PM 33.6333 -84.4667 53° Northeast 168 193 2,600  Level Atlanta TRACON
Sat 06:32:48 PM 33.6167 -84.5333 253° West 249 287 3,900 2,250 Climbing Atlanta TRACON
Sat 06:33:54 PM 33.5500 -84.5833 212° Southwest 284 327 7,100 2,500 Climbing Atlanta TRACON
Sat 06:34:00 PM 33.7238 -84.0216 54° Northeast  Level FlightAware Approximate
Sat 06:34:48 PM 33.4833 -84.5833 180° South 302 348 8,900  Level Atlanta TRACON
Sat 06:35:00 PM 33.7905 -83.9104 54° Northeast  Level FlightAware Approximate
Sat 06:35:57 PM 33.4533 -84.4769 109° East 338 389 10,800  Level Atlanta Center
Sat 06:36:00 PM 33.8572 -83.7992 54° Northeast  Level FlightAware Approximate
Sat 06:36:57 PM 33.4536 -84.3625 90° East 350 403 12,100  Level Atlanta Center
Sat 06:37:00 PM 33.9306 -83.6943 53° Northeast  Level FlightAware Approximate
Sat 06:37:57 PM 33.4894 -84.2531 69° East 350 403 13,200  Level Atlanta Center
Sat 06:38:57 PM 33.5894 -84.2108 19° North 333 383 14,700 1,650 Climbing Atlanta Center
Sat 06:39:57 PM 33.6856 -84.1836 13° North 331 381 16,500 1,150 Climbing Atlanta Center
Sat 06:40:57 PM 33.7608 -84.0989 43° Northeast 364 419 17,000 250 Climbing Atlanta Center
Sat 06:41:57 PM 33.8131 -83.9764 63° Northeast 379 436 17,000 300 Level Atlanta Center
Sat 06:42:57 PM 33.8650 -83.8586 62° Northeast 398 458 17,600 1,000 Climbing Atlanta Center
Sat 06:43:57 PM 33.9169 -83.7383 62° Northeast 398 458 19,000 1,150 Climbing Atlanta Center
Sat 06:44:57 PM 33.9836 -83.6306 53° Northeast 399 459 19,900 1,000 Climbing Atlanta Center
Sat 06:45:57 PM 34.0500 -83.5222 53° Northeast 399 459 21,000 550 Climbing Atlanta Center
Sat 06:46:57 PM 34.1267 -83.4014 53° Northeast 405 466 21,000 450 Level Atlanta Center
Sat 06:47:57 PM 34.2011 -83.2878 52° Northeast 419 482 21,900 950 Climbing Atlanta Center
Sat 06:48:57 PM 34.2692 -83.1742 54° Northeast 424 488 22,900 650 Climbing Atlanta Center
Sat 06:49:57 PM 34.3414 -83.0575 53° Northeast 418 481 23,200 400 Climbing Atlanta Center
Sat 06:50:57 PM 34.4133 -82.9383 54° Northeast 429 494 23,700 500 Climbing Atlanta Center
Sat 06:51:57 PM 34.4894 -82.8189 52° Northeast 442 509 24,200 500 Climbing Atlanta Center
Sat 06:52:57 PM 34.5653 -82.6969 53° Northeast 447 514 24,700 500 Climbing Atlanta Center
Sat 06:53:57 PM 34.6392 -82.5794 53° Northeast 447 514 25,200 500 Climbing Atlanta Center
Sat 06:54:57 PM 34.7128 -82.4544 54° Northeast 442 509 25,700 500 Climbing Atlanta Center
Sat 06:55:57 PM 34.7883 -82.3342 53° Northeast 442 509 26,200 500 Climbing Atlanta Center
Sat 06:56:57 PM 34.8639 -82.2086 54° Northeast 447 514 26,700 500 Climbing Atlanta Center
Sat 06:57:57 PM 34.9308 -82.0981 54° Northeast 447 514 27,200 500 Climbing Atlanta Center
Sat 06:58:57 PM 35.0083 -81.9772 52° Northeast 452 520 27,700 500 Climbing Atlanta Center
Sat 06:59:57 PM 35.1350 -81.9383 14° North 413 475 28,200 450 Climbing Atlanta Center
Sat 07:00:57 PM 35.2519 -81.9558 353° North 409 471 28,600 400 Climbing Atlanta Center
Sat 07:01:57 PM 35.3692 -81.9706 354° North 414 476 29,000 450 Climbing Atlanta Center
Sat 07:02:57 PM 35.4861 -81.9856 354° North 428 493 29,500 450 Climbing Atlanta Center
Sat 07:03:57 PM 35.6053 -82.0006 354° North 428 493 29,900 450 Climbing Atlanta Center
Sat 07:04:57 PM 35.7267 -82.0128 355° North 428 493 30,400 355 Climbing Atlanta Center
Sat 07:07:03 PM 35.9636 -82.0400 355° North 423 487 31,000 200 Climbing Indianapolis Center
Sat 07:07:57 PM 36.0672 -82.0556 353° North 427 491 31,000  Level Atlanta Center
Sat 07:08:57 PM 36.1928 -82.0706 354° North 432 497 31,000  Level Atlanta Center
Sat 07:09:57 PM 36.3139 -82.0831 355° North 439 505 31,000  Level Atlanta Center
Sat 07:12:10 PM 36.6067 -82.1192 354° North 456 525 31,000  Level Indianapolis Center
Sat 07:13:11 PM 36.7333 -82.1350 354° North 458 527 31,000  Level Indianapolis Center
Sat 07:14:12 PM 36.8544 -82.1733 346° North 450 518 31,000  Level Indianapolis Center
Sat 07:15:14 PM 36.9692 -82.2267 340° North 441 507 31,000  Level Indianapolis Center
Sat 07:16:15 PM 37.0856 -82.2747 342° North 441 507 31,000  Level Indianapolis Center
Sat 07:17:17 PM 37.2011 -82.3194 343° North 437 503 31,000  Level Indianapolis Center
Sat 07:18:18 PM 37.3169 -82.3669 342° North 438 504 31,000  Level Indianapolis Center
Sat 07:19:19 PM 37.4519 -82.4203 343° North 436 502 31,000  Level Indianapolis Center
Sat 07:20:21 PM 37.5503 -82.4994 327° Northwest 425 489 31,000  Level Indianapolis Center
Sat 07:21:22 PM 37.6511 -82.5736 330° Northwest 420 483 31,000  Level Indianapolis Center
Sat 07:22:23 PM 37.7514 -82.6506 329° Northwest 422 486 31,000  Level Indianapolis Center
Sat 07:23:25 PM 37.8536 -82.7247 330° Northwest 424 488 31,000  Level Indianapolis Center
Sat 07:24:26 PM 37.9556 -82.8006 330° Northwest 424 488 31,000  Level Indianapolis Center
Sat 07:25:27 PM 38.0572 -82.8778 329° Northwest 426 490 31,000  Level Indianapolis Center
Sat 07:26:29 PM 38.1778 -82.9686 329° Northwest 432 497 31,000  Level Indianapolis Center
Sat 07:27:30 PM 38.2797 -83.0453 329° Northwest 429 494 31,000  Level Indianapolis Center
Sat 07:28:31 PM 38.3928 -83.1061 337° Northwest 444 511 31,000 -537 Level Indianapolis Center
Sat 07:29:33 PM 38.5097 -83.1583 341° North 444 511 29,900 -1,415 Descending Indianapolis Center
Sat 07:30:34 PM 38.6264 -83.2106 341° North 443 510 28,100 -1,869 Descending Indianapolis Center
Sat 07:31:35 PM 38.7331 -83.2617 340° North 430 495 26,100 -1,951 Descending Indianapolis Center
Sat 07:32:37 PM 38.8419 -83.3183 338° Northwest 421 484 24,100 -1,024 Descending Indianapolis Center
Sat 07:33:38 PM 38.9414 -83.3775 335° Northwest 396 456 24,000 -49 Descending Indianapolis Center
Sat 07:34:39 PM 39.0256 -83.4522 325° Northwest 369 425 24,000  Level Indianapolis Center
Sat 07:35:41 PM 39.1311 -83.5414 327° Northwest 381 438 24,000  Level Indianapolis Center
Sat 07:36:42 PM 39.2244 -83.6225 326° Northwest 394 453 24,000 -49 Level Indianapolis Center
Sat 07:37:43 PM 39.3208 -83.7056 326° Northwest 408 470 23,900  Descending Indianapolis Center
Sat 07:38:56 PM 39.4153 -83.7886 326° Northwest 407 468 24,000 -578 Climbing Indianapolis Center
Sat 07:39:58 PM 39.5278 -83.8867 326° Northwest 410 472 22,600 -1,024 Descending Indianapolis Center
Sat 07:40:59 PM 39.6269 -83.9739 326° Northwest 419 482 21,900 -344 Descending Indianapolis Center
Sat 07:42:00 PM 39.7194 -84.0558 326° Northwest 403 464 21,900 -488 Level Indianapolis Center
Sat 07:43:02 PM 39.8100 -84.1356 326° Northwest 391 450 20,900 -976 Descending Indianapolis Center
Sat 07:44:03 PM 39.9022 -84.2178 326° Northwest 395 455 19,900 -1,033 Descending Indianapolis Center
Sat 07:45:04 PM 39.9944 -84.3000 326° Northwest 396 456 18,800 -1,131 Descending Indianapolis Center
Sat 07:46:05 PM 40.0861 -84.3806 326° Northwest 394 453 17,600 -1,073 Descending Indianapolis Center
Sat 07:47:07 PM 40.1769 -84.4619 326° Northwest 390 449 16,600 -976 Descending Indianapolis Center
Sat 07:48:08 PM 40.2647 -84.5411 325° Northwest 383 441 15,600 -1,033 Descending Indianapolis Center
Sat 07:49:09 PM 40.3508 -84.6200 325° Northwest 375 432 14,500 -1,279 Descending Indianapolis Center
Sat 07:50:10 PM 40.4344 -84.6931 326° Northwest 362 417 13,000 -1,525 Descending Indianapolis Center
Sat 07:51:11 PM 40.5128 -84.7608 327° Northwest 340 391 11,400 -1,574 Descending Indianapolis Center
Sat 07:52:12 PM 40.5861 -84.8236 327° Northwest 320 368 9,800 -1,623 Descending Indianapolis Center
Sat 07:53:13 PM 40.6531 -84.8814 327° Northwest 294 338 8,100 -1,659 Descending Indianapolis Center
Sat 07:54:15 PM 40.7239 -84.9406 328° Northwest 288 331 6,400 -1,659 Descending Indianapolis Center
Sat 07:55:16 PM 40.7869 -84.9942 327° Northwest 276 318 4,700 -1,488 Descending Indianapolis Center
Sat 07:56:20 PM 40.8500 -85.0481 327° Northwest 266 306 3,300 -1,313 Descending Chicago Center

Login

Don't have an account? Register now (free) for customized features, flight alerts, and more!